sensor_id;sensor_type;location;lat;lon;timestamp;temperature;humidity
48454;DHT22;34261;55.678;12.464;2023-07-20T00:02:15;15.40;99.90
48454;DHT22;34261;55.678;12.464;2023-07-20T00:04:41;15.40;99.90
48454;DHT22;34261;55.678;12.464;2023-07-20T00:07:06;15.30;99.90
48454;DHT22;34261;55.678;12.464;2023-07-20T00:09:32;15.30;99.90
48454;DHT22;34261;55.678;12.464;2023-07-20T00:11:58;15.30;99.90
48454;DHT22;34261;55.678;12.464;2023-07-20T00:14:25;15.30;99.90
48454;DHT22;34261;55.678;12.464;2023-07-20T00:16:51;15.20;99.90
48454;DHT22;34261;55.678;12.464;2023-07-20T00:19:25;15.20;99.90
48454;DHT22;34261;55.678;12.464;2023-07-20T00:21:52;15.20;99.90
48454;DHT22;34261;55.678;12.464;2023-07-20T00:24:17;15.20;99.90
48454;DHT22;34261;55.678;12.464;2023-07-20T00:26:43;15.20;99.90
48454;DHT22;34261;55.678;12.464;2023-07-20T00:29:09;15.20;99.90
48454;DHT22;34261;55.678;12.464;2023-07-20T00:31:35;15.20;99.90
48454;DHT22;34261;55.678;12.464;2023-07-20T00:34:05;15.10;99.90
48454;DHT22;34261;55.678;12.464;2023-07-20T00:36:31;15.10;99.90
48454;DHT22;34261;55.678;12.464;2023-07-20T00:38:57;15.10;99.90
48454;DHT22;34261;55.678;12.464;2023-07-20T00:41:22;15.10;99.90
48454;DHT22;34261;55.678;12.464;2023-07-20T00:43:48;15.10;99.90
48454;DHT22;34261;55.678;12.464;2023-07-20T00:46:14;15.10;99.90
48454;DHT22;34261;55.678;12.464;2023-07-20T00:48:41;15.10;99.90
48454;DHT22;34261;55.678;12.464;2023-07-20T00:51:07;15.10;99.90
48454;DHT22;34261;55.678;12.464;2023-07-20T00:53:33;15.00;99.90
48454;DHT22;34261;55.678;12.464;2023-07-20T00:55:59;15.00;99.90
48454;DHT22;34261;55.678;12.464;2023-07-20T00:58:26;15.00;99.90
48454;DHT22;34261;55.678;12.464;2023-07-20T01:00:51;15.00;99.90
48454;DHT22;34261;55.678;12.464;2023-07-20T01:03:17;14.90;99.90
48454;DHT22;34261;55.678;12.464;2023-07-20T01:05:54;14.90;99.90
48454;DHT22;34261;55.678;12.464;2023-07-20T01:08:46;14.90;99.90
48454;DHT22;34261;55.678;12.464;2023-07-20T01:11:16;14.90;99.90
48454;DHT22;34261;55.678;12.464;2023-07-20T01:13:46;14.90;99.90
48454;DHT22;34261;55.678;12.464;2023-07-20T01:16:12;14.90;99.90
48454;DHT22;34261;55.678;12.464;2023-07-20T01:18:38;14.80;99.90
48454;DHT22;34261;55.678;12.464;2023-07-20T01:21:11;14.80;99.90
48454;DHT22;34261;55.678;12.464;2023-07-20T01:24:05;14.80;99.90
48454;DHT22;34261;55.678;12.464;2023-07-20T01:32:15;14.70;99.90
48454;DHT22;34261;55.678;12.464;2023-07-20T01:34:42;14.70;99.90
48454;DHT22;34261;55.678;12.464;2023-07-20T01:37:10;14.60;99.90
48454;DHT22;34261;55.678;12.464;2023-07-20T01:39:37;14.60;99.90
48454;DHT22;34261;55.678;12.464;2023-07-20T01:42:05;14.60;99.90
48454;DHT22;34261;55.678;12.464;2023-07-20T01:44:31;14.60;99.90
48454;DHT22;34261;55.678;12.464;2023-07-20T01:46:57;14.60;99.90
48454;DHT22;34261;55.678;12.464;2023-07-20T01:49:23;14.50;99.90
48454;DHT22;34261;55.678;12.464;2023-07-20T01:51:48;14.50;99.90
48454;DHT22;34261;55.678;12.464;2023-07-20T01:54:14;14.50;99.90
48454;DHT22;34261;55.678;12.464;2023-07-20T01:56:39;14.50;99.90
48454;DHT22;34261;55.678;12.464;2023-07-20T01:59:05;14.50;99.90
48454;DHT22;34261;55.678;12.464;2023-07-20T02:01:31;14.50;99.90
48454;DHT22;34261;55.678;12.464;2023-07-20T02:03:56;14.40;99.90
48454;DHT22;34261;55.678;12.464;2023-07-20T02:06:22;14.40;99.90
48454;DHT22;34261;55.678;12.464;2023-07-20T02:08:47;14.40;99.90
48454;DHT22;34261;55.678;12.464;2023-07-20T02:11:13;14.30;99.90
48454;DHT22;34261;55.678;12.464;2023-07-20T02:13:38;14.40;99.90
48454;DHT22;34261;55.678;12.464;2023-07-20T02:16:04;14.40;99.90
48454;DHT22;34261;55.678;12.464;2023-07-20T02:18:30;14.40;99.90
48454;DHT22;34261;55.678;12.464;2023-07-20T02:20:56;14.40;99.90
48454;DHT22;34261;55.678;12.464;2023-07-20T02:23:23;14.40;99.90
48454;DHT22;34261;55.678;12.464;2023-07-20T02:25:48;14.30;99.90
48454;DHT22;34261;55.678;12.464;2023-07-20T02:28:14;14.30;99.90
48454;DHT22;34261;55.678;12.464;2023-07-20T02:30:40;14.30;99.90
48454;DHT22;34261;55.678;12.464;2023-07-20T02:33:06;14.20;99.90
48454;DHT22;34261;55.678;12.464;2023-07-20T02:35:32;14.20;99.90
48454;DHT22;34261;55.678;12.464;2023-07-20T02:37:59;14.20;99.90
48454;DHT22;34261;55.678;12.464;2023-07-20T02:40:25;14.20;99.90
48454;DHT22;34261;55.678;12.464;2023-07-20T02:42:51;14.20;99.90
48454;DHT22;34261;55.678;12.464;2023-07-20T02:45:18;14.20;99.90
48454;DHT22;34261;55.678;12.464;2023-07-20T02:47:44;14.20;99.90
48454;DHT22;34261;55.678;12.464;2023-07-20T02:50:09;14.20;99.90
48454;DHT22;34261;55.678;12.464;2023-07-20T02:52:35;14.20;99.90
48454;DHT22;34261;55.678;12.464;2023-07-20T02:55:00;14.20;99.90
48454;DHT22;34261;55.678;12.464;2023-07-20T02:57:26;14.10;99.90
48454;DHT22;34261;55.678;12.464;2023-07-20T02:59:52;14.10;99.90
48454;DHT22;34261;55.678;12.464;2023-07-20T03:02:18;14.00;99.90
48454;DHT22;34261;55.678;12.464;2023-07-20T03:04:43;14.10;99.90
48454;DHT22;34261;55.678;12.464;2023-07-20T03:07:09;14.00;99.90
48454;DHT22;34261;55.678;12.464;2023-07-20T03:09:35;14.00;99.90
48454;DHT22;34261;55.678;12.464;2023-07-20T03:12:00;14.00;99.90
48454;DHT22;34261;55.678;12.464;2023-07-20T03:14:26;14.00;99.90
48454;DHT22;34261;55.678;12.464;2023-07-20T03:16:52;14.00;99.90
48454;DHT22;34261;55.678;12.464;2023-07-20T03:19:17;14.00;99.90
48454;DHT22;34261;55.678;12.464;2023-07-20T03:21:43;14.10;99.90
48454;DHT22;34261;55.678;12.464;2023-07-20T03:24:09;14.00;99.90
48454;DHT22;34261;55.678;12.464;2023-07-20T03:26:36;14.10;99.90
48454;DHT22;34261;55.678;12.464;2023-07-20T03:29:02;14.10;99.90
48454;DHT22;34261;55.678;12.464;2023-07-20T03:31:28;14.10;99.90
48454;DHT22;34261;55.678;12.464;2023-07-20T03:33:55;14.10;99.90
48454;DHT22;34261;55.678;12.464;2023-07-20T03:36:20;14.20;99.90
48454;DHT22;34261;55.678;12.464;2023-07-20T03:38:46;14.20;99.90
48454;DHT22;34261;55.678;12.464;2023-07-20T03:41:11;14.20;99.90
48454;DHT22;34261;55.678;12.464;2023-07-20T03:43:37;14.20;99.90
48454;DHT22;34261;55.678;12.464;2023-07-20T03:46:02;14.20;99.90
48454;DHT22;34261;55.678;12.464;2023-07-20T03:48:32;14.20;99.90
48454;DHT22;34261;55.678;12.464;2023-07-20T03:50:58;14.20;99.90
48454;DHT22;34261;55.678;12.464;2023-07-20T03:53:25;14.30;99.90
48454;DHT22;34261;55.678;12.464;2023-07-20T03:55:52;14.40;99.90
48454;DHT22;34261;55.678;12.464;2023-07-20T03:58:19;14.40;99.90
48454;DHT22;34261;55.678;12.464;2023-07-20T04:00:49;14.40;99.90
48454;DHT22;34261;55.678;12.464;2023-07-20T04:03:19;14.40;99.90
48454;DHT22;34261;55.678;12.464;2023-07-20T04:05:45;14.50;99.90
48454;DHT22;34261;55.678;12.464;2023-07-20T04:08:11;14.50;99.90
48454;DHT22;34261;55.678;12.464;2023-07-20T04:10:37;14.60;99.90
48454;DHT22;34261;55.678;12.464;2023-07-20T04:13:03;14.50;99.90
48454;DHT22;34261;55.678;12.464;2023-07-20T04:15:29;14.50;99.90
48454;DHT22;34261;55.678;12.464;2023-07-20T04:17:55;14.60;99.90
48454;DHT22;34261;55.678;12.464;2023-07-20T04:20:24;14.60;99.90
48454;DHT22;34261;55.678;12.464;2023-07-20T04:22:50;14.60;99.90
48454;DHT22;34261;55.678;12.464;2023-07-20T04:25:17;14.70;99.90
48454;DHT22;34261;55.678;12.464;2023-07-20T04:27:42;14.60;99.90
48454;DHT22;34261;55.678;12.464;2023-07-20T04:30:09;14.60;99.90
48454;DHT22;34261;55.678;12.464;2023-07-20T04:32:35;14.70;99.90
48454;DHT22;34261;55.678;12.464;2023-07-20T04:35:06;14.70;99.90
48454;DHT22;34261;55.678;12.464;2023-07-20T04:37:33;14.70;99.90
48454;DHT22;34261;55.678;12.464;2023-07-20T04:39:59;14.80;99.90
48454;DHT22;34261;55.678;12.464;2023-07-20T04:42:25;14.80;99.90
48454;DHT22;34261;55.678;12.464;2023-07-20T04:44:50;14.80;99.90
48454;DHT22;34261;55.678;12.464;2023-07-20T04:47:16;14.90;99.90
48454;DHT22;34261;55.678;12.464;2023-07-20T04:49:41;14.90;99.90
48454;DHT22;34261;55.678;12.464;2023-07-20T04:52:07;14.90;99.90
48454;DHT22;34261;55.678;12.464;2023-07-20T04:54:33;14.90;99.90
48454;DHT22;34261;55.678;12.464;2023-07-20T04:57:01;15.00;99.90
48454;DHT22;34261;55.678;12.464;2023-07-20T04:59:26;15.10;99.90
48454;DHT22;34261;55.678;12.464;2023-07-20T05:01:52;15.20;99.90
48454;DHT22;34261;55.678;12.464;2023-07-20T05:04:18;15.30;99.90
48454;DHT22;34261;55.678;12.464;2023-07-20T05:06:43;15.30;99.90
48454;DHT22;34261;55.678;12.464;2023-07-20T05:09:11;15.40;99.90
48454;DHT22;34261;55.678;12.464;2023-07-20T05:11:36;15.40;99.90
48454;DHT22;34261;55.678;12.464;2023-07-20T05:14:02;15.50;99.90
48454;DHT22;34261;55.678;12.464;2023-07-20T05:16:28;15.50;99.90
48454;DHT22;34261;55.678;12.464;2023-07-20T05:18:53;15.60;99.90
48454;DHT22;34261;55.678;12.464;2023-07-20T05:21:19;15.70;99.90
48454;DHT22;34261;55.678;12.464;2023-07-20T05:23:44;15.80;99.90
48454;DHT22;34261;55.678;12.464;2023-07-20T05:26:10;15.90;99.90
48454;DHT22;34261;55.678;12.464;2023-07-20T05:28:36;15.90;99.90
48454;DHT22;34261;55.678;12.464;2023-07-20T05:31:03;15.90;99.90
48454;DHT22;34261;55.678;12.464;2023-07-20T05:33:28;16.10;99.90
48454;DHT22;34261;55.678;12.464;2023-07-20T05:35:54;16.20;99.90
48454;DHT22;34261;55.678;12.464;2023-07-20T05:38:19;16.30;99.90
48454;DHT22;34261;55.678;12.464;2023-07-20T05:40:45;16.40;99.90
48454;DHT22;34261;55.678;12.464;2023-07-20T05:43:12;16.40;99.90
48454;DHT22;34261;55.678;12.464;2023-07-20T05:45:37;16.40;99.90
48454;DHT22;34261;55.678;12.464;2023-07-20T05:48:03;16.50;99.90
48454;DHT22;34261;55.678;12.464;2023-07-20T05:50:29;16.60;99.90
48454;DHT22;34261;55.678;12.464;2023-07-20T05:52:55;16.60;99.90
48454;DHT22;34261;55.678;12.464;2023-07-20T05:55:21;16.70;99.90
48454;DHT22;34261;55.678;12.464;2023-07-20T05:57:46;16.80;99.90
48454;DHT22;34261;55.678;12.464;2023-07-20T06:00:14;16.90;99.90
48454;DHT22;34261;55.678;12.464;2023-07-20T06:02:40;17.00;99.90
48454;DHT22;34261;55.678;12.464;2023-07-20T06:05:08;16.90;99.90
48454;DHT22;34261;55.678;12.464;2023-07-20T06:07:37;17.00;99.90
48454;DHT22;34261;55.678;12.464;2023-07-20T06:10:04;17.10;99.90
48454;DHT22;34261;55.678;12.464;2023-07-20T06:12:31;17.10;99.90
48454;DHT22;34261;55.678;12.464;2023-07-20T06:14:56;17.10;99.90
48454;DHT22;34261;55.678;12.464;2023-07-20T06:17:22;17.10;99.90
48454;DHT22;34261;55.678;12.464;2023-07-20T06:19:47;17.10;99.90
48454;DHT22;34261;55.678;12.464;2023-07-20T06:22:13;17.20;99.90
48454;DHT22;34261;55.678;12.464;2023-07-20T06:24:38;17.20;99.90
48454;DHT22;34261;55.678;12.464;2023-07-20T06:27:04;17.20;99.90
48454;DHT22;34261;55.678;12.464;2023-07-20T06:29:31;17.30;99.90
48454;DHT22;34261;55.678;12.464;2023-07-20T06:31:56;17.40;99.90
48454;DHT22;34261;55.678;12.464;2023-07-20T06:34:22;17.60;99.90
48454;DHT22;34261;55.678;12.464;2023-07-20T06:36:47;17.60;99.90
48454;DHT22;34261;55.678;12.464;2023-07-20T06:39:13;17.70;99.90
48454;DHT22;34261;55.678;12.464;2023-07-20T06:41:39;17.80;99.90
48454;DHT22;34261;55.678;12.464;2023-07-20T06:44:05;18.10;99.90
48454;DHT22;34261;55.678;12.464;2023-07-20T06:46:30;18.20;99.90
48454;DHT22;34261;55.678;12.464;2023-07-20T06:48:56;18.00;99.90
48454;DHT22;34261;55.678;12.464;2023-07-20T06:51:22;17.80;99.90
48454;DHT22;34261;55.678;12.464;2023-07-20T06:53:47;17.70;99.90
48454;DHT22;34261;55.678;12.464;2023-07-20T06:56:13;17.80;99.90
48454;DHT22;34261;55.678;12.464;2023-07-20T06:58:39;17.90;99.90
48454;DHT22;34261;55.678;12.464;2023-07-20T07:01:08;18.10;99.90
48454;DHT22;34261;55.678;12.464;2023-07-20T07:03:33;18.20;99.90
48454;DHT22;34261;55.678;12.464;2023-07-20T07:05:59;18.20;99.90
48454;DHT22;34261;55.678;12.464;2023-07-20T07:08:25;18.10;99.90
48454;DHT22;34261;55.678;12.464;2023-07-20T07:10:59;17.70;99.90
48454;DHT22;34261;55.678;12.464;2023-07-20T07:13:28;17.30;99.90
48454;DHT22;34261;55.678;12.464;2023-07-20T07:15:54;17.00;99.90
48454;DHT22;34261;55.678;12.464;2023-07-20T07:18:19;16.80;99.90
48454;DHT22;34261;55.678;12.464;2023-07-20T07:20:53;16.60;99.90
48454;DHT22;34261;55.678;12.464;2023-07-20T07:23:19;16.60;99.90
48454;DHT22;34261;55.678;12.464;2023-07-20T07:25:44;16.50;99.90
48454;DHT22;34261;55.678;12.464;2023-07-20T07:28:10;16.50;99.90
48454;DHT22;34261;55.678;12.464;2023-07-20T07:30:35;16.50;99.90
48454;DHT22;34261;55.678;12.464;2023-07-20T07:33:01;16.60;99.90
48454;DHT22;34261;55.678;12.464;2023-07-20T07:35:27;16.70;99.90
48454;DHT22;34261;55.678;12.464;2023-07-20T07:37:52;16.90;99.90
48454;DHT22;34261;55.678;12.464;2023-07-20T07:40:18;17.00;99.90
48454;DHT22;34261;55.678;12.464;2023-07-20T07:42:43;17.20;99.90
48454;DHT22;34261;55.678;12.464;2023-07-20T07:45:11;17.40;99.90
48454;DHT22;34261;55.678;12.464;2023-07-20T07:47:36;17.60;99.90
48454;DHT22;34261;55.678;12.464;2023-07-20T07:50:02;17.80;99.90
48454;DHT22;34261;55.678;12.464;2023-07-20T07:52:28;18.00;99.90
48454;DHT22;34261;55.678;12.464;2023-07-20T07:54:53;18.10;99.90
48454;DHT22;34261;55.678;12.464;2023-07-20T07:57:19;18.30;99.90
48454;DHT22;34261;55.678;12.464;2023-07-20T07:59:45;18.30;99.90
48454;DHT22;34261;55.678;12.464;2023-07-20T08:02:10;18.10;99.90
48454;DHT22;34261;55.678;12.464;2023-07-20T08:04:36;17.90;99.90
48454;DHT22;34261;55.678;12.464;2023-07-20T08:07:03;17.60;99.90
48454;DHT22;34261;55.678;12.464;2023-07-20T08:09:29;17.30;99.90
48454;DHT22;34261;55.678;12.464;2023-07-20T08:11:54;17.30;99.90
48454;DHT22;34261;55.678;12.464;2023-07-20T08:14:20;17.50;99.90
48454;DHT22;34261;55.678;12.464;2023-07-20T08:16:46;17.80;99.90
48454;DHT22;34261;55.678;12.464;2023-07-20T08:19:12;18.10;99.90
48454;DHT22;34261;55.678;12.464;2023-07-20T08:21:38;18.30;99.90
48454;DHT22;34261;55.678;12.464;2023-07-20T08:24:04;18.20;99.90
48454;DHT22;34261;55.678;12.464;2023-07-20T08:26:29;18.00;99.90
48454;DHT22;34261;55.678;12.464;2023-07-20T08:28:55;18.30;99.90
48454;DHT22;34261;55.678;12.464;2023-07-20T08:31:20;18.40;99.90
48454;DHT22;34261;55.678;12.464;2023-07-20T08:33:46;18.30;99.90
48454;DHT22;34261;55.678;12.464;2023-07-20T08:36:12;17.90;99.90
48454;DHT22;34261;55.678;12.464;2023-07-20T08:38:38;17.70;99.90
48454;DHT22;34261;55.678;12.464;2023-07-20T08:41:03;17.60;99.90
48454;DHT22;34261;55.678;12.464;2023-07-20T08:43:30;17.80;99.90
48454;DHT22;34261;55.678;12.464;2023-07-20T08:45:57;18.10;99.90
48454;DHT22;34261;55.678;12.464;2023-07-20T08:48:24;17.90;99.90
48454;DHT22;34261;55.678;12.464;2023-07-20T08:50:51;18.00;99.90
48454;DHT22;34261;55.678;12.464;2023-07-20T08:53:18;17.90;99.90
48454;DHT22;34261;55.678;12.464;2023-07-20T08:55:45;18.20;99.90
48454;DHT22;34261;55.678;12.464;2023-07-20T08:58:14;18.60;99.90
48454;DHT22;34261;55.678;12.464;2023-07-20T09:00:41;19.00;99.90
48454;DHT22;34261;55.678;12.464;2023-07-20T09:03:07;19.30;99.90
48454;DHT22;34261;55.678;12.464;2023-07-20T09:05:33;19.30;99.90
48454;DHT22;34261;55.678;12.464;2023-07-20T09:08:00;19.10;99.90
48454;DHT22;34261;55.678;12.464;2023-07-20T09:10:26;18.80;99.90
48454;DHT22;34261;55.678;12.464;2023-07-20T09:12:51;18.50;99.90
48454;DHT22;34261;55.678;12.464;2023-07-20T09:15:17;18.20;99.90
48454;DHT22;34261;55.678;12.464;2023-07-20T09:17:51;17.80;99.90
48454;DHT22;34261;55.678;12.464;2023-07-20T09:20:19;18.10;99.90
48454;DHT22;34261;55.678;12.464;2023-07-20T09:22:45;18.10;99.90
48454;DHT22;34261;55.678;12.464;2023-07-20T09:25:15;18.10;99.90
48454;DHT22;34261;55.678;12.464;2023-07-20T09:27:42;18.00;99.90
48454;DHT22;34261;55.678;12.464;2023-07-20T09:30:09;18.00;99.90
48454;DHT22;34261;55.678;12.464;2023-07-20T09:35:17;18.00;99.90
48454;DHT22;34261;55.678;12.464;2023-07-20T09:37:54;17.90;99.90
48454;DHT22;34261;55.678;12.464;2023-07-20T09:40:21;18.20;99.90
48454;DHT22;34261;55.678;12.464;2023-07-20T09:42:47;18.40;99.90
48454;DHT22;34261;55.678;12.464;2023-07-20T09:45:13;18.40;99.90
48454;DHT22;34261;55.678;12.464;2023-07-20T09:47:39;18.40;99.90
48454;DHT22;34261;55.678;12.464;2023-07-20T09:50:06;18.70;99.90
48454;DHT22;34261;55.678;12.464;2023-07-20T09:52:40;19.20;99.90
48454;DHT22;34261;55.678;12.464;2023-07-20T09:55:08;19.40;99.90
48454;DHT22;34261;55.678;12.464;2023-07-20T09:57:35;19.80;99.90
48454;DHT22;34261;55.678;12.464;2023-07-20T10:00:05;19.80;99.90
48454;DHT22;34261;55.678;12.464;2023-07-20T10:02:41;19.70;99.90
48454;DHT22;34261;55.678;12.464;2023-07-20T10:05:08;19.70;99.90
48454;DHT22;34261;55.678;12.464;2023-07-20T10:07:36;19.60;99.90
48454;DHT22;34261;55.678;12.464;2023-07-20T10:10:06;19.70;99.90
48454;DHT22;34261;55.678;12.464;2023-07-20T10:12:33;19.70;99.90
48454;DHT22;34261;55.678;12.464;2023-07-20T10:15:15;19.50;99.90
48454;DHT22;34261;55.678;12.464;2023-07-20T10:17:55;19.60;99.90
48454;DHT22;34261;55.678;12.464;2023-07-20T10:20:22;19.70;99.90
48454;DHT22;34261;55.678;12.464;2023-07-20T10:22:49;19.50;99.90
48454;DHT22;34261;55.678;12.464;2023-07-20T10:25:18;19.20;99.90
48454;DHT22;34261;55.678;12.464;2023-07-20T10:27:45;19.50;99.90
48454;DHT22;34261;55.678;12.464;2023-07-20T10:30:11;19.90;99.30
48454;DHT22;34261;55.678;12.464;2023-07-20T10:32:38;20.30;99.30
48454;DHT22;34261;55.678;12.464;2023-07-20T10:35:13;20.60;99.50
48454;DHT22;34261;55.678;12.464;2023-07-20T10:37:50;20.30;98.60
48454;DHT22;34261;55.678;12.464;2023-07-20T10:41:12;20.50;98.20
48454;DHT22;34261;55.678;12.464;2023-07-20T10:43:19;20.80;99.10
48454;DHT22;34261;55.678;12.464;2023-07-20T10:45:48;21.10;97.20
48454;DHT22;34261;55.678;12.464;2023-07-20T10:48:16;21.50;96.50
48454;DHT22;34261;55.678;12.464;2023-07-20T10:50:43;21.60;96.50
48454;DHT22;34261;55.678;12.464;2023-07-20T10:53:17;22.10;97.00
48454;DHT22;34261;55.678;12.464;2023-07-20T10:55:43;21.70;95.30
48454;DHT22;34261;55.678;12.464;2023-07-20T10:58:11;21.80;94.60
48454;DHT22;34261;55.678;12.464;2023-07-20T11:00:38;22.10;96.40
48454;DHT22;34261;55.678;12.464;2023-07-20T11:03:26;22.80;95.80
48454;DHT22;34261;55.678;12.464;2023-07-20T11:05:52;22.80;94.30
48454;DHT22;34261;55.678;12.464;2023-07-20T11:08:38;22.70;93.30
48454;DHT22;34261;55.678;12.464;2023-07-20T11:13:56;22.50;93.50
48454;DHT22;34261;55.678;12.464;2023-07-20T11:19:02;22.90;93.70
48454;DHT22;34261;55.678;12.464;2023-07-20T11:21:28;22.50;93.20
48454;DHT22;34261;55.678;12.464;2023-07-20T11:23:55;22.10;93.90
48454;DHT22;34261;55.678;12.464;2023-07-20T11:26:21;22.10;94.40
48454;DHT22;34261;55.678;12.464;2023-07-20T11:28:50;22.30;94.00
48454;DHT22;34261;55.678;12.464;2023-07-20T11:31:18;22.60;93.50
48454;DHT22;34261;55.678;12.464;2023-07-20T11:33:44;22.20;93.40
48454;DHT22;34261;55.678;12.464;2023-07-20T11:36:09;22.50;93.70
48454;DHT22;34261;55.678;12.464;2023-07-20T11:38:35;23.10;93.70
48454;DHT22;34261;55.678;12.464;2023-07-20T11:41:03;23.80;94.50
48454;DHT22;34261;55.678;12.464;2023-07-20T11:43:30;24.20;92.60
48454;DHT22;34261;55.678;12.464;2023-07-20T11:45:56;23.90;91.80
48454;DHT22;34261;55.678;12.464;2023-07-20T11:48:21;23.20;92.50
48454;DHT22;34261;55.678;12.464;2023-07-20T11:50:47;22.50;92.50
48454;DHT22;34261;55.678;12.464;2023-07-20T11:53:14;22.60;92.90
48454;DHT22;34261;55.678;12.464;2023-07-20T11:55:40;22.40;93.00
48454;DHT22;34261;55.678;12.464;2023-07-20T11:58:07;22.50;93.40
48454;DHT22;34261;55.678;12.464;2023-07-20T12:00:34;22.80;93.60
48454;DHT22;34261;55.678;12.464;2023-07-20T12:03:05;22.70;93.00
48454;DHT22;34261;55.678;12.464;2023-07-20T12:05:35;23.00;93.80
48454;DHT22;34261;55.678;12.464;2023-07-20T12:08:01;23.40;93.00
48454;DHT22;34261;55.678;12.464;2023-07-20T12:10:27;23.20;93.50
48454;DHT22;34261;55.678;12.464;2023-07-20T12:13:02;23.70;93.80
48454;DHT22;34261;55.678;12.464;2023-07-20T12:15:30;23.70;92.70
48454;DHT22;34261;55.678;12.464;2023-07-20T12:17:58;23.40;93.50
48454;DHT22;34261;55.678;12.464;2023-07-20T12:20:30;23.00;93.10
48454;DHT22;34261;55.678;12.464;2023-07-20T12:23:00;23.30;93.80
48454;DHT22;34261;55.678;12.464;2023-07-20T12:25:34;23.40;92.90
48454;DHT22;34261;55.678;12.464;2023-07-20T12:28:08;23.40;92.70
48454;DHT22;34261;55.678;12.464;2023-07-20T12:30:33;23.80;92.50
48454;DHT22;34261;55.678;12.464;2023-07-20T12:32:59;24.20;92.70
48454;DHT22;34261;55.678;12.464;2023-07-20T12:35:25;24.30;93.30
48454;DHT22;34261;55.678;12.464;2023-07-20T12:37:50;23.90;91.50
48454;DHT22;34261;55.678;12.464;2023-07-20T12:40:17;24.20;92.30
48454;DHT22;34261;55.678;12.464;2023-07-20T12:42:42;23.90;92.40
48454;DHT22;34261;55.678;12.464;2023-07-20T12:45:08;24.30;93.00
48454;DHT22;34261;55.678;12.464;2023-07-20T12:47:34;24.40;92.10
48454;DHT22;34261;55.678;12.464;2023-07-20T12:49:59;24.10;93.10
48454;DHT22;34261;55.678;12.464;2023-07-20T12:52:25;24.20;92.00
48454;DHT22;34261;55.678;12.464;2023-07-20T12:54:50;24.80;92.00
48454;DHT22;34261;55.678;12.464;2023-07-20T12:57:16;24.10;91.30
48454;DHT22;34261;55.678;12.464;2023-07-20T12:59:42;23.50;91.60
48454;DHT22;34261;55.678;12.464;2023-07-20T13:02:08;22.80;92.30
48454;DHT22;34261;55.678;12.464;2023-07-20T13:04:33;22.60;93.30
48454;DHT22;34261;55.678;12.464;2023-07-20T13:06:59;22.30;93.10
48454;DHT22;34261;55.678;12.464;2023-07-20T13:09:25;22.80;93.80
48454;DHT22;34261;55.678;12.464;2023-07-20T13:11:51;22.60;94.20
48454;DHT22;34261;55.678;12.464;2023-07-20T13:14:17;22.50;94.70
48454;DHT22;34261;55.678;12.464;2023-07-20T13:16:43;22.10;95.40
48454;DHT22;34261;55.678;12.464;2023-07-20T13:19:08;21.70;96.30
48454;DHT22;34261;55.678;12.464;2023-07-20T13:21:34;21.80;97.80
48454;DHT22;34261;55.678;12.464;2023-07-20T13:24:00;22.30;97.60
48454;DHT22;34261;55.678;12.464;2023-07-20T13:26:25;23.10;96.60
48454;DHT22;34261;55.678;12.464;2023-07-20T13:28:51;23.30;95.30
48454;DHT22;34261;55.678;12.464;2023-07-20T13:31:17;23.70;95.40
48454;DHT22;34261;55.678;12.464;2023-07-20T13:33:43;24.00;93.40
48454;DHT22;34261;55.678;12.464;2023-07-20T13:36:09;24.10;94.30
48454;DHT22;34261;55.678;12.464;2023-07-20T13:38:34;23.30;93.50
48454;DHT22;34261;55.678;12.464;2023-07-20T13:41:00;22.70;94.60
48454;DHT22;34261;55.678;12.464;2023-07-20T13:43:25;22.40;95.30
48454;DHT22;34261;55.678;12.464;2023-07-20T13:45:51;22.20;94.90
48454;DHT22;34261;55.678;12.464;2023-07-20T13:48:16;22.30;95.60
48454;DHT22;34261;55.678;12.464;2023-07-20T13:50:45;22.10;96.10
48454;DHT22;34261;55.678;12.464;2023-07-20T13:53:11;22.00;96.60
48454;DHT22;34261;55.678;12.464;2023-07-20T13:55:37;21.60;96.90
48454;DHT22;34261;55.678;12.464;2023-07-20T13:58:03;22.00;99.90
48454;DHT22;34261;55.678;12.464;2023-07-20T14:00:29;22.20;99.90
48454;DHT22;34261;55.678;12.464;2023-07-20T14:03:00;22.40;99.90
48454;DHT22;34261;55.678;12.464;2023-07-20T14:05:26;22.60;99.90
48454;DHT22;34261;55.678;12.464;2023-07-20T14:07:52;23.00;99.90
48454;DHT22;34261;55.678;12.464;2023-07-20T14:10:17;22.90;98.30
48454;DHT22;34261;55.678;12.464;2023-07-20T14:12:43;22.70;98.60
48454;DHT22;34261;55.678;12.464;2023-07-20T14:15:10;22.40;98.40
48454;DHT22;34261;55.678;12.464;2023-07-20T14:17:35;22.70;98.00
48454;DHT22;34261;55.678;12.464;2023-07-20T14:20:01;23.20;97.80
48454;DHT22;34261;55.678;12.464;2023-07-20T14:22:30;23.40;95.60
48454;DHT22;34261;55.678;12.464;2023-07-20T14:24:56;23.60;94.40
48454;DHT22;34261;55.678;12.464;2023-07-20T14:27:21;23.60;94.50
48454;DHT22;34261;55.678;12.464;2023-07-20T14:29:47;23.70;93.50
48454;DHT22;34261;55.678;12.464;2023-07-20T14:32:12;23.50;93.90
48454;DHT22;34261;55.678;12.464;2023-07-20T14:34:38;23.90;93.40
48454;DHT22;34261;55.678;12.464;2023-07-20T14:37:04;24.20;92.90
48454;DHT22;34261;55.678;12.464;2023-07-20T14:39:30;24.00;93.00
48454;DHT22;34261;55.678;12.464;2023-07-20T14:41:56;24.30;92.30
48454;DHT22;34261;55.678;12.464;2023-07-20T14:44:21;24.50;92.60
48454;DHT22;34261;55.678;12.464;2023-07-20T14:46:47;24.30;92.00
48454;DHT22;34261;55.678;12.464;2023-07-20T14:49:12;23.90;92.80
48454;DHT22;34261;55.678;12.464;2023-07-20T14:51:38;24.00;92.20
48454;DHT22;34261;55.678;12.464;2023-07-20T14:54:09;23.50;92.50
48454;DHT22;34261;55.678;12.464;2023-07-20T14:56:35;23.80;92.60
48454;DHT22;34261;55.678;12.464;2023-07-20T14:59:01;24.20;92.40
48454;DHT22;34261;55.678;12.464;2023-07-20T15:01:26;24.10;92.10
48454;DHT22;34261;55.678;12.464;2023-07-20T15:03:52;23.50;92.70
48454;DHT22;34261;55.678;12.464;2023-07-20T15:06:19;23.10;93.20
48454;DHT22;34261;55.678;12.464;2023-07-20T15:08:45;22.80;93.40
48454;DHT22;34261;55.678;12.464;2023-07-20T15:11:10;22.70;94.30
48454;DHT22;34261;55.678;12.464;2023-07-20T15:13:36;22.70;93.70
48454;DHT22;34261;55.678;12.464;2023-07-20T15:16:01;23.20;94.20
48454;DHT22;34261;55.678;12.464;2023-07-20T15:18:27;23.00;93.50
48454;DHT22;34261;55.678;12.464;2023-07-20T15:20:53;22.90;94.60
48454;DHT22;34261;55.678;12.464;2023-07-20T15:23:21;22.70;93.40
48454;DHT22;34261;55.678;12.464;2023-07-20T15:25:46;22.60;94.40
48454;DHT22;34261;55.678;12.464;2023-07-20T15:28:12;22.20;94.50